createdAt,value
2022-12-15T00:01:20.876Z,60.74
2022-12-15T00:04:06.948Z,60.65
2022-12-15T00:06:53.149Z,60.09
2022-12-15T00:09:39.071Z,60.96
2022-12-15T00:12:29.029Z,60.89
2022-12-15T00:15:15.018Z,60.84
2022-12-15T00:18:03.416Z,59.50
2022-12-15T00:20:49.640Z,60.18
2022-12-15T00:23:36.235Z,60.38
2022-12-15T00:26:22.755Z,60.33
2022-12-15T00:29:09.845Z,59.72
2022-12-15T00:31:55.567Z,60.94
2022-12-15T00:34:41.574Z,60.55
2022-12-15T00:37:27.414Z,60.71
2022-12-15T00:39:59.887Z,61.71
2022-12-15T00:42:32.339Z,60.88
2022-12-15T00:45:02.867Z,62.25
2022-12-15T00:47:33.002Z,62.32
2022-12-15T00:50:19.109Z,62.47
2022-12-15T00:53:04.882Z,60.69
2022-12-15T00:55:51.462Z,61.62
2022-12-15T00:58:37.439Z,62.38
2022-12-15T01:01:29.566Z,62.37
2022-12-15T01:04:15.836Z,62.03
2022-12-15T01:07:01.998Z,61.01
2022-12-15T01:09:47.936Z,61.26
2022-12-15T01:12:34.076Z,61.12
2022-12-15T01:15:20.125Z,61.60
2022-12-15T01:18:07.189Z,62.35
2022-12-15T01:20:35.909Z,62.27
2022-12-15T01:23:06.316Z,62.20
2022-12-15T01:25:34.936Z,60.87
2022-12-15T01:28:03.130Z,60.98
2022-12-15T01:30:31.680Z,61.96
2022-12-15T01:33:02.473Z,60.95
2022-12-15T01:35:30.954Z,62.25
2022-12-15T01:37:59.365Z,62.01
2022-12-15T01:40:44.946Z,61.89
2022-12-15T01:43:15.474Z,60.96
2022-12-15T01:45:54.942Z,60.83
2022-12-15T01:48:33.804Z,61.43
2022-12-15T01:51:10.404Z,62.52
2022-12-15T01:53:43.236Z,62.74
2022-12-15T01:56:14.202Z,62.69
2022-12-15T01:58:45.983Z,62.41
2022-12-15T02:01:14.706Z,60.95
2022-12-15T02:03:45.505Z,60.65
2022-12-15T02:06:14.848Z,60.91
2022-12-15T02:08:46.488Z,61.41
2022-12-15T02:12:03.470Z,62.30
2022-12-15T02:14:47.066Z,62.03
2022-12-15T02:17:28.273Z,63.04
2022-12-15T02:20:34.820Z,62.24
2022-12-15T02:23:48.503Z,62.19
2022-12-15T02:26:48.019Z,62.54
2022-12-15T02:29:31.685Z,62.79
2022-12-15T02:32:04.913Z,63.40
2022-12-15T02:34:42.397Z,62.95
2022-12-15T02:37:16.336Z,63.43
2022-12-15T02:39:45.291Z,61.83
2022-12-15T02:42:14.191Z,60.84
2022-12-15T02:44:46.796Z,61.51
2022-12-15T02:47:25.825Z,61.85
2022-12-15T02:50:21.104Z,62.72
2022-12-15T02:53:01.776Z,62.50
2022-12-15T02:55:40.621Z,62.46
2022-12-15T02:58:16.661Z,61.50
2022-12-15T03:00:54.791Z,61.67
2022-12-15T03:03:26.367Z,61.48
2022-12-15T03:05:55.384Z,61.60
2022-12-15T03:08:24.034Z,61.86
2022-12-15T03:10:56.312Z,61.75
2022-12-15T03:13:25.150Z,61.77
2022-12-15T03:15:54.632Z,61.61
2022-12-15T03:18:24.461Z,61.45
2022-12-15T03:20:53.775Z,61.64
2022-12-15T03:23:23.184Z,62.12
2022-12-15T03:25:51.823Z,61.55
2022-12-15T03:28:20.278Z,60.48
2022-12-15T03:30:50.576Z,60.70
2022-12-15T03:33:19.493Z,62.49
2022-12-15T03:35:50.021Z,62.37
2022-12-15T03:38:18.755Z,61.96
2022-12-15T03:40:47.259Z,61.01
2022-12-15T03:43:15.431Z,61.09
2022-12-15T03:45:43.969Z,60.65
2022-12-15T03:48:12.120Z,60.65
2022-12-15T03:50:40.916Z,62.18
2022-12-15T03:53:10.835Z,62.34
2022-12-15T03:55:39.325Z,62.22
2022-12-15T03:58:07.821Z,61.61
2022-12-15T04:00:36.275Z,61.19
2022-12-15T04:03:04.638Z,62.11
2022-12-15T04:05:35.149Z,61.82
2022-12-15T04:08:04.111Z,61.90
2022-12-15T04:10:35.783Z,61.10
2022-12-15T04:13:07.727Z,61.33
2022-12-15T04:15:37.470Z,61.09
2022-12-15T04:18:10.180Z,62.14
2022-12-15T04:20:39.123Z,61.98
2022-12-15T04:23:08.188Z,61.68
2022-12-15T04:25:55.823Z,61.66
2022-12-15T04:28:41.959Z,59.51
2022-12-15T04:31:29.523Z,60.01
2022-12-15T04:34:19.851Z,60.50
2022-12-15T04:37:08.435Z,59.28
2022-12-15T04:39:54.688Z,60.12
2022-12-15T04:42:42.664Z,59.52
2022-12-15T04:45:30.461Z,59.59
2022-12-15T04:48:16.527Z,59.40
2022-12-15T04:51:02.589Z,58.55
2022-12-15T04:53:48.809Z,59.93
2022-12-15T04:56:35.084Z,59.69
2022-12-15T04:59:22.748Z,59.45
2022-12-15T05:02:09.103Z,59.11
2022-12-15T05:04:57.996Z,58.63
2022-12-15T05:07:44.153Z,58.56
2022-12-15T05:10:30.897Z,57.29
2022-12-15T05:13:23.126Z,59.09
2022-12-15T05:16:10.457Z,59.75
2022-12-15T05:18:56.554Z,59.45
2022-12-15T05:21:43.493Z,59.86
2022-12-15T05:24:29.462Z,59.70
2022-12-15T05:27:17.397Z,60.72
2022-12-15T05:30:03.351Z,61.51
2022-12-15T05:32:34.887Z,61.36
2022-12-15T05:35:03.448Z,60.51
2022-12-15T05:37:34.487Z,60.57
2022-12-15T05:40:03.062Z,62.07
2022-12-15T05:42:32.069Z,62.55
2022-12-15T05:45:00.269Z,62.08
2022-12-15T05:47:28.777Z,60.18
2022-12-15T05:49:58.335Z,59.65
2022-12-15T05:52:26.768Z,60.81
2022-12-15T05:54:54.963Z,61.16
2022-12-15T05:57:23.500Z,60.92
2022-12-15T05:59:51.656Z,61.74
2022-12-15T06:02:20.196Z,62.46
2022-12-15T06:04:48.783Z,60.88
2022-12-15T06:07:19.301Z,60.14
2022-12-15T06:09:48.091Z,60.06
2022-12-15T06:12:16.702Z,60.60
2022-12-15T06:14:45.323Z,61.35
2022-12-15T06:17:14.099Z,62.01
2022-12-15T06:19:42.631Z,62.37
2022-12-15T06:22:10.849Z,60.87
2022-12-15T06:24:40.671Z,59.93
2022-12-15T06:27:09.242Z,61.66
2022-12-15T06:29:40.233Z,62.47
2022-12-15T06:32:08.683Z,62.89
2022-12-15T06:34:37.181Z,62.06
2022-12-15T06:37:05.575Z,62.59
2022-12-15T06:39:33.817Z,61.41
2022-12-15T06:42:03.591Z,61.13
2022-12-15T06:44:32.116Z,60.37
2022-12-15T06:47:00.350Z,61.48
2022-12-15T06:49:28.730Z,63.13
2022-12-15T06:51:57.022Z,62.71
2022-12-15T06:54:31.100Z,63.99
2022-12-15T06:56:59.835Z,63.61
2022-12-15T06:59:29.782Z,61.88
2022-12-15T07:01:58.597Z,61.46
2022-12-15T07:04:28.056Z,61.85
2022-12-15T07:06:56.993Z,62.56
2022-12-15T07:09:27.687Z,63.57
2022-12-15T07:11:56.353Z,63.33
2022-12-15T07:14:26.056Z,64.96
2022-12-15T07:16:56.012Z,63.10
2022-12-15T07:19:32.676Z,61.35
2022-12-15T07:22:01.623Z,62.74
2022-12-15T07:24:30.178Z,62.58
2022-12-15T07:26:59.224Z,62.33
2022-12-15T07:29:29.911Z,62.49
2022-12-15T07:32:01.997Z,61.63
2022-12-15T07:34:30.814Z,63.12
2022-12-15T07:37:01.078Z,64.35
2022-12-15T07:39:29.700Z,65.40
2022-12-15T07:41:57.971Z,64.59
2022-12-15T07:44:29.593Z,62.41
2022-12-15T07:46:59.657Z,62.25
2022-12-15T07:49:28.111Z,62.92
2022-12-15T07:51:58.553Z,62.77
2022-12-15T07:54:27.564Z,61.68
2022-12-15T07:56:56.311Z,61.92
2022-12-15T07:59:25.021Z,62.54
2022-12-15T08:01:53.964Z,61.06
2022-12-15T08:04:25.332Z,62.01
2022-12-15T08:06:55.517Z,60.64
2022-12-15T08:09:24.157Z,61.66
2022-12-15T08:11:53.010Z,61.80
2022-12-15T08:14:22.269Z,63.21
2022-12-15T08:16:51.381Z,62.81
2022-12-15T08:19:20.058Z,63.08
2022-12-15T08:21:50.123Z,64.78
2022-12-15T08:24:19.717Z,62.79
2022-12-15T08:26:50.011Z,64.84
2022-12-15T08:32:08.079Z,65.18
2022-12-15T08:34:36.998Z,63.74
2022-12-15T08:37:06.946Z,61.69
2022-12-15T08:39:35.371Z,61.44
2022-12-15T08:42:03.618Z,61.59
2022-12-15T08:44:32.079Z,62.95
2022-12-15T08:47:00.827Z,62.34
2022-12-15T08:49:29.469Z,62.00
2022-12-15T08:51:57.591Z,61.29
2022-12-15T08:54:34.736Z,61.58
2022-12-15T08:57:03.274Z,60.98
2022-12-15T08:59:31.444Z,61.39
2022-12-15T09:02:00.782Z,60.25
2022-12-15T09:04:29.630Z,62.58
2022-12-15T09:06:58.323Z,60.55
2022-12-15T09:09:28.127Z,60.36
2022-12-15T09:11:56.650Z,61.67
2022-12-15T09:14:29.240Z,59.58
2022-12-15T09:16:58.388Z,61.37
2022-12-15T09:19:27.129Z,61.92
2022-12-15T09:21:55.810Z,59.05
2022-12-15T09:24:32.489Z,58.66
2022-12-15T09:27:05.513Z,58.59
2022-12-15T09:29:35.168Z,59.45
2022-12-15T09:32:10.537Z,58.96
2022-12-15T09:34:42.360Z,61.58
2022-12-15T09:37:10.595Z,61.57
2022-12-15T09:39:39.741Z,61.11
2022-12-15T09:42:25.025Z,60.28
2022-12-15T09:45:02.699Z,60.57
2022-12-15T09:47:44.179Z,60.02
2022-12-15T09:50:15.365Z,59.52
2022-12-15T09:52:49.758Z,59.46
2022-12-15T09:55:22.330Z,58.91
2022-12-15T09:58:06.084Z,61.03
2022-12-15T10:00:52.224Z,59.58
2022-12-15T10:03:39.355Z,59.72
2022-12-15T10:06:16.518Z,60.64
2022-12-15T10:08:53.796Z,59.91
2022-12-15T10:11:37.299Z,60.09
2022-12-15T10:14:15.747Z,59.24
2022-12-15T10:16:57.561Z,60.56
2022-12-15T10:19:32.923Z,58.75
2022-12-15T10:22:01.686Z,57.90
2022-12-15T10:27:40.022Z,59.77
2022-12-15T10:30:13.777Z,59.59
2022-12-15T10:32:51.470Z,58.88
2022-12-15T10:35:23.498Z,57.74
2022-12-15T10:37:52.831Z,59.30
2022-12-15T10:40:45.357Z,59.55
2022-12-15T10:43:27.689Z,60.45
2022-12-15T10:46:12.483Z,60.50
2022-12-15T10:48:42.017Z,59.27
2022-12-15T10:51:20.168Z,59.44
2022-12-15T10:53:51.043Z,59.37
2022-12-15T10:56:32.432Z,61.29
2022-12-15T10:59:25.834Z,60.11
2022-12-15T11:01:56.195Z,58.77
2022-12-15T11:04:29.195Z,59.61
2022-12-15T11:06:58.887Z,59.05
2022-12-15T11:09:33.154Z,59.06
2022-12-15T11:12:19.559Z,60.04
2022-12-15T11:14:49.944Z,58.33
2022-12-15T11:17:22.940Z,60.77
2022-12-15T11:20:03.061Z,61.67
2022-12-15T11:22:41.057Z,60.60
2022-12-15T11:25:21.803Z,61.09
2022-12-15T11:27:57.480Z,61.78
2022-12-15T11:30:31.717Z,60.81
2022-12-15T11:33:03.306Z,60.41
2022-12-15T11:35:54.653Z,60.03
2022-12-15T11:38:34.027Z,60.55
2022-12-15T11:41:10.237Z,60.63
2022-12-15T11:44:06.627Z,61.99
2022-12-15T11:46:44.247Z,60.89
2022-12-15T11:53:05.165Z,62.23
2022-12-15T11:55:43.180Z,63.42
2022-12-15T11:58:37.593Z,61.87
2022-12-15T12:01:13.422Z,61.23
2022-12-15T12:03:55.466Z,62.05
2022-12-15T12:06:36.065Z,61.50
2022-12-15T12:09:29.187Z,61.16
2022-12-15T12:12:06.276Z,61.49
2022-12-15T12:14:45.642Z,62.96
2022-12-15T12:17:28.623Z,61.46
2022-12-15T12:20:05.014Z,61.20
2022-12-15T12:22:44.037Z,60.69
2022-12-15T12:25:20.239Z,62.16
2022-12-15T12:27:54.280Z,61.52
2022-12-15T12:30:26.044Z,61.84
2022-12-15T12:33:01.483Z,61.58
2022-12-15T12:35:38.906Z,61.84
2022-12-15T12:38:11.389Z,62.04
2022-12-15T12:40:53.427Z,62.17
2022-12-15T12:43:33.256Z,62.71
2022-12-15T12:46:08.445Z,62.68
2022-12-15T12:48:40.366Z,61.91
2022-12-15T12:51:20.490Z,61.75
2022-12-15T12:53:51.407Z,61.07
2022-12-15T12:56:37.791Z,61.92
2022-12-15T12:59:27.987Z,62.35
2022-12-15T13:01:57.617Z,62.30
2022-12-15T13:04:41.973Z,62.50
2022-12-15T13:07:32.135Z,61.51
2022-12-15T13:10:15.334Z,61.99
2022-12-15T13:12:51.671Z,61.58
2022-12-15T13:15:35.215Z,61.78
2022-12-15T13:18:11.945Z,61.59
2022-12-15T13:20:44.082Z,61.75
2022-12-15T13:23:41.478Z,60.93
2022-12-15T13:26:16.400Z,61.68
2022-12-15T13:28:53.041Z,61.51
2022-12-15T13:31:56.630Z,61.43
2022-12-15T13:34:27.577Z,61.25
2022-12-15T13:37:01.267Z,60.49
2022-12-15T13:40:01.187Z,61.39
2022-12-15T13:42:53.126Z,61.54
2022-12-15T13:45:50.714Z,62.02
2022-12-15T13:48:36.897Z,61.47
2022-12-15T13:51:38.713Z,61.65
2022-12-15T13:54:16.726Z,61.29
2022-12-15T13:56:59.934Z,61.02
2022-12-15T13:59:38.373Z,61.05
2022-12-15T14:02:25.804Z,60.58
2022-12-15T14:05:12.959Z,61.62
2022-12-15T14:07:45.408Z,60.57
2022-12-15T14:10:22.583Z,61.11
2022-12-15T14:12:53.066Z,61.12
2022-12-15T14:15:29.179Z,60.75
2022-12-15T14:17:59.471Z,60.19
2022-12-15T14:20:29.852Z,60.79
2022-12-15T14:22:59.182Z,60.40
2022-12-15T14:25:30.768Z,60.69
2022-12-15T14:27:59.636Z,60.00
2022-12-15T14:30:33.071Z,60.37
2022-12-15T14:33:05.321Z,60.23
2022-12-15T14:35:40.247Z,60.14
2022-12-15T14:38:13.255Z,59.17
2022-12-15T14:40:43.289Z,60.20
2022-12-15T14:43:24.469Z,59.68
2022-12-15T14:46:06.445Z,60.24
2022-12-15T14:48:42.317Z,60.28
2022-12-15T14:54:00.860Z,59.78
2022-12-15T14:56:31.682Z,60.21
2022-12-15T14:59:04.870Z,60.09
2022-12-15T15:01:41.151Z,60.61
2022-12-15T15:04:26.033Z,60.78
2022-12-15T15:07:01.635Z,61.30
2022-12-15T15:09:34.861Z,61.28
2022-12-15T15:12:24.673Z,60.70
2022-12-15T15:15:00.559Z,59.95
2022-12-15T15:17:45.825Z,61.06
2022-12-15T15:20:21.644Z,60.59
2022-12-15T15:23:05.548Z,62.44
2022-12-15T15:25:40.184Z,61.20
2022-12-15T15:28:21.598Z,61.73
2022-12-15T15:30:56.114Z,62.53
2022-12-15T15:33:28.817Z,61.73
2022-12-15T15:35:59.690Z,61.27
2022-12-15T15:38:32.531Z,61.47
2022-12-15T15:41:03.043Z,60.94
2022-12-15T15:43:31.639Z,62.05
2022-12-15T15:46:03.773Z,62.33
2022-12-15T15:48:37.850Z,63.41
2022-12-15T15:51:07.547Z,62.08
2022-12-15T15:53:36.946Z,61.64
2022-12-15T15:56:08.316Z,61.87
2022-12-15T15:58:37.189Z,63.54
2022-12-15T16:01:12.706Z,63.43
2022-12-15T16:03:43.866Z,61.84
2022-12-15T16:06:18.428Z,63.44
2022-12-15T16:08:52.531Z,63.10
2022-12-15T16:11:25.419Z,64.06
2022-12-15T16:14:03.984Z,63.31
2022-12-15T16:16:35.991Z,62.96
2022-12-15T16:19:16.080Z,62.10
2022-12-15T16:21:46.591Z,63.98
2022-12-15T16:24:18.931Z,63.54
2022-12-15T16:26:52.133Z,62.71
2022-12-15T16:29:22.214Z,62.57
2022-12-15T16:31:53.759Z,62.56
2022-12-15T16:34:24.897Z,62.72
2022-12-15T16:36:53.726Z,62.59
2022-12-15T16:39:37.897Z,63.14
2022-12-15T16:42:11.128Z,62.25
2022-12-15T16:44:39.651Z,63.29
2022-12-15T16:47:07.846Z,65.22
2022-12-15T16:49:40.252Z,64.31
2022-12-15T16:52:15.423Z,64.25
2022-12-15T16:54:46.532Z,64.33
2022-12-15T16:57:16.109Z,63.54
2022-12-15T16:59:47.535Z,63.63
2022-12-15T17:02:29.290Z,64.17
2022-12-15T17:04:59.546Z,63.65
2022-12-15T17:07:29.757Z,62.81
2022-12-15T17:09:58.501Z,63.89
2022-12-15T17:12:27.181Z,63.44
2022-12-15T17:14:57.639Z,63.32
2022-12-15T17:17:26.899Z,64.39
2022-12-15T17:20:28.035Z,64.46
2022-12-15T17:22:47.063Z,63.67
2022-12-15T17:25:51.960Z,63.63
2022-12-15T17:28:17.149Z,63.93
2022-12-15T17:30:46.600Z,65.11
2022-12-15T17:33:20.674Z,64.05
2022-12-15T17:36:03.064Z,63.84
2022-12-15T17:38:35.172Z,64.25
2022-12-15T17:41:03.739Z,64.89
2022-12-15T17:43:35.955Z,64.26
2022-12-15T17:46:05.264Z,64.73
2022-12-15T17:48:33.985Z,65.38
2022-12-15T17:51:02.599Z,64.71
2022-12-15T17:53:34.856Z,63.75
2022-12-15T17:56:03.670Z,63.51
2022-12-15T17:58:32.357Z,64.64
2022-12-15T18:01:03.988Z,63.62
2022-12-15T18:03:35.887Z,63.48
2022-12-15T18:06:05.544Z,64.43
2022-12-15T18:08:36.378Z,63.86
2022-12-15T18:11:05.163Z,64.26
2022-12-15T18:13:35.820Z,64.44
2022-12-15T18:16:04.798Z,64.57
2022-12-15T18:18:35.072Z,64.81
2022-12-15T18:21:12.377Z,64.33
2022-12-15T18:23:47.755Z,64.86
2022-12-15T18:26:16.648Z,65.78
2022-12-15T18:29:30.144Z,64.82
2022-12-15T18:32:21.934Z,65.25
2022-12-15T18:34:56.819Z,65.59
2022-12-15T18:37:28.319Z,64.67
2022-12-15T18:40:04.845Z,64.63
2022-12-15T18:42:34.698Z,64.00
2022-12-15T18:45:05.246Z,64.23
2022-12-15T18:47:34.250Z,65.78
2022-12-15T18:50:02.787Z,65.01
2022-12-15T18:52:34.812Z,65.08
2022-12-15T18:55:05.609Z,64.60
2022-12-15T18:57:36.932Z,65.70
2022-12-15T19:00:17.765Z,64.96
2022-12-15T19:02:50.137Z,66.39
2022-12-15T19:05:32.894Z,65.86
2022-12-15T19:08:05.503Z,65.12
2022-12-15T19:10:36.037Z,65.22
2022-12-15T19:13:05.343Z,65.60
2022-12-15T19:15:33.878Z,64.89
2022-12-15T19:18:19.451Z,67.05
2022-12-15T19:21:05.493Z,64.85
2022-12-15T19:23:34.957Z,65.27
2022-12-15T19:26:09.002Z,67.20
2022-12-15T19:28:39.410Z,65.91
2022-12-15T19:31:09.328Z,66.69
2022-12-15T19:33:37.932Z,67.13
2022-12-15T19:36:11.389Z,65.81
2022-12-15T19:38:39.976Z,68.50
2022-12-15T19:41:13.185Z,67.64
2022-12-15T19:43:42.456Z,66.28
2022-12-15T19:46:16.545Z,66.97
2022-12-15T19:48:45.201Z,66.97
2022-12-15T19:51:16.379Z,67.64
2022-12-15T19:53:46.949Z,65.84
2022-12-15T19:56:20.966Z,66.68
2022-12-15T19:58:51.678Z,66.88
2022-12-15T20:01:23.527Z,66.58
2022-12-15T20:03:54.295Z,65.25
2022-12-15T20:06:25.688Z,67.07
2022-12-15T20:08:57.048Z,66.82
2022-12-15T20:11:29.860Z,66.97
2022-12-15T20:14:01.370Z,68.00
2022-12-15T20:16:30.215Z,67.35
2022-12-15T20:18:59.306Z,67.67
2022-12-15T20:21:36.863Z,67.76
2022-12-15T20:24:09.266Z,67.53
2022-12-15T20:26:40.650Z,66.98
2022-12-15T20:29:22.347Z,67.81
2022-12-15T20:31:51.004Z,68.56
2022-12-15T20:34:19.976Z,67.02
2022-12-15T20:36:48.623Z,67.24
2022-12-15T20:39:21.782Z,66.20
2022-12-15T20:41:51.832Z,67.60
2022-12-15T20:44:20.894Z,67.98
2022-12-15T20:46:49.399Z,66.82
2022-12-15T20:49:18.633Z,68.05
2022-12-15T20:51:48.152Z,65.83
2022-12-15T20:54:19.299Z,68.92
2022-12-15T20:56:48.863Z,67.97
2022-12-15T20:59:19.349Z,68.59
2022-12-15T21:01:48.274Z,68.61
2022-12-15T21:04:26.075Z,68.60
2022-12-15T21:06:55.555Z,68.90
2022-12-15T21:09:25.190Z,66.97
2022-12-15T21:11:55.269Z,66.99
2022-12-15T21:14:26.117Z,68.29
2022-12-15T21:16:55.449Z,68.03
2022-12-15T21:19:24.886Z,67.92
2022-12-15T21:24:56.955Z,66.77
2022-12-15T21:27:36.552Z,68.18
2022-12-15T21:30:41.073Z,68.80
2022-12-15T21:33:11.887Z,69.19
2022-12-15T21:35:41.875Z,69.10
2022-12-15T21:38:50.379Z,70.43
2022-12-15T21:41:23.476Z,68.85
2022-12-15T21:43:52.149Z,69.87
2022-12-15T21:46:27.882Z,69.85
2022-12-15T21:49:14.609Z,69.38
2022-12-15T21:51:45.344Z,68.96
2022-12-15T21:54:22.849Z,68.24
2022-12-15T21:56:54.741Z,67.79
2022-12-15T21:59:25.620Z,69.16
2022-12-15T22:01:56.307Z,69.37
2022-12-15T22:04:29.466Z,68.12
2022-12-15T22:06:58.000Z,67.16
2022-12-15T22:09:26.503Z,68.46
2022-12-15T22:11:55.873Z,68.91
2022-12-15T22:14:27.369Z,67.18
2022-12-15T22:16:57.894Z,67.97
2022-12-15T22:19:26.556Z,67.93
2022-12-15T22:21:55.322Z,67.75
2022-12-15T22:24:23.820Z,67.37
2022-12-15T22:26:52.241Z,67.92
2022-12-15T22:29:23.157Z,67.27
2022-12-15T22:31:52.030Z,68.47
2022-12-15T22:34:23.483Z,67.84
2022-12-15T22:36:52.651Z,66.79
2022-12-15T22:39:24.532Z,66.65
2022-12-15T22:41:53.743Z,64.56
2022-12-15T22:44:25.163Z,66.99
2022-12-15T22:46:56.884Z,67.93
2022-12-15T22:49:31.910Z,67.78
2022-12-15T22:52:00.397Z,67.56
2022-12-15T22:54:30.397Z,68.27
2022-12-15T22:57:01.826Z,68.04
2022-12-15T22:59:34.579Z,67.66
2022-12-15T23:02:03.848Z,67.15
2022-12-15T23:04:34.022Z,66.57
2022-12-15T23:07:04.855Z,67.27
2022-12-15T23:09:33.371Z,68.27
2022-12-15T23:12:00.744Z,66.30
2022-12-15T23:14:43.049Z,65.37
2022-12-15T23:17:12.681Z,67.00
2022-12-15T23:19:45.835Z,67.22
2022-12-15T23:22:14.835Z,66.99
2022-12-15T23:24:43.417Z,65.58
2022-12-15T23:27:12.436Z,67.90
2022-12-15T23:29:41.127Z,68.12
2022-12-15T23:32:09.291Z,68.13
2022-12-15T23:34:37.742Z,66.92
2022-12-15T23:37:07.308Z,66.78
2022-12-15T23:39:36.852Z,66.09
2022-12-15T23:42:06.112Z,66.79
2022-12-15T23:44:34.666Z,64.27
2022-12-15T23:47:02.939Z,67.39
2022-12-15T23:49:33.407Z,66.55
2022-12-15T23:52:01.968Z,67.09
2022-12-15T23:54:31.585Z,66.63
2022-12-15T23:56:59.923Z,66.46
2022-12-15T23:59:28.349Z,65.54
